sensor_id;sensor_type;location;lat;lon;timestamp;temperature;humidity
71754;DHT22;59593;51.716;7.016;2023-04-24T00:00:05;11.50;99.90
71754;DHT22;59593;51.716;7.016;2023-04-24T00:02:31;11.50;99.90
71754;DHT22;59593;51.716;7.016;2023-04-24T00:04:58;11.50;99.90
71754;DHT22;59593;51.716;7.016;2023-04-24T00:07:28;11.60;99.90
71754;DHT22;59593;51.716;7.016;2023-04-24T00:09:54;11.60;99.90
71754;DHT22;59593;51.716;7.016;2023-04-24T00:12:20;11.50;99.90
71754;DHT22;59593;51.716;7.016;2023-04-24T00:14:45;11.50;99.90
71754;DHT22;59593;51.716;7.016;2023-04-24T00:17:11;11.60;99.90
71754;DHT22;59593;51.716;7.016;2023-04-24T00:19:36;11.50;99.90
71754;DHT22;59593;51.716;7.016;2023-04-24T00:22:02;11.50;99.90
71754;DHT22;59593;51.716;7.016;2023-04-24T00:24:28;11.60;99.90
71754;DHT22;59593;51.716;7.016;2023-04-24T00:26:53;11.60;99.90
71754;DHT22;59593;51.716;7.016;2023-04-24T00:29:19;11.60;99.90
71754;DHT22;59593;51.716;7.016;2023-04-24T00:31:44;11.60;99.90
71754;DHT22;59593;51.716;7.016;2023-04-24T00:34:10;11.60;99.90
71754;DHT22;59593;51.716;7.016;2023-04-24T00:36:37;11.60;99.90
71754;DHT22;59593;51.716;7.016;2023-04-24T00:39:02;11.60;99.90
71754;DHT22;59593;51.716;7.016;2023-04-24T00:41:28;11.60;99.90
71754;DHT22;59593;51.716;7.016;2023-04-24T00:43:54;11.60;99.90
71754;DHT22;59593;51.716;7.016;2023-04-24T00:46:21;11.50;99.90
71754;DHT22;59593;51.716;7.016;2023-04-24T00:48:47;11.50;99.90
71754;DHT22;59593;51.716;7.016;2023-04-24T00:51:13;11.40;99.90
71754;DHT22;59593;51.716;7.016;2023-04-24T00:53:38;11.40;99.90
71754;DHT22;59593;51.716;7.016;2023-04-24T00:56:05;11.50;99.90
71754;DHT22;59593;51.716;7.016;2023-04-24T00:58:31;11.40;99.90
71754;DHT22;59593;51.716;7.016;2023-04-24T01:00:57;11.40;99.90
71754;DHT22;59593;51.716;7.016;2023-04-24T01:03:26;11.40;99.90
71754;DHT22;59593;51.716;7.016;2023-04-24T01:05:54;11.30;99.90
71754;DHT22;59593;51.716;7.016;2023-04-24T01:08:22;11.30;99.90
71754;DHT22;59593;51.716;7.016;2023-04-24T01:10:51;11.20;99.90
71754;DHT22;59593;51.716;7.016;2023-04-24T01:13:18;11.30;99.90
71754;DHT22;59593;51.716;7.016;2023-04-24T01:15:44;11.30;99.90
71754;DHT22;59593;51.716;7.016;2023-04-24T01:18:10;11.20;99.90
71754;DHT22;59593;51.716;7.016;2023-04-24T01:20:37;11.20;99.90
71754;DHT22;59593;51.716;7.016;2023-04-24T01:23:05;11.20;99.90
71754;DHT22;59593;51.716;7.016;2023-04-24T01:25:31;11.20;99.90
71754;DHT22;59593;51.716;7.016;2023-04-24T01:27:58;11.10;99.90
71754;DHT22;59593;51.716;7.016;2023-04-24T01:30:24;11.10;99.90
71754;DHT22;59593;51.716;7.016;2023-04-24T01:32:50;11.10;99.90
71754;DHT22;59593;51.716;7.016;2023-04-24T01:35:17;11.00;99.90
71754;DHT22;59593;51.716;7.016;2023-04-24T01:37:42;11.00;99.90
71754;DHT22;59593;51.716;7.016;2023-04-24T01:40:08;11.00;99.90
71754;DHT22;59593;51.716;7.016;2023-04-24T01:42:34;11.00;99.90
71754;DHT22;59593;51.716;7.016;2023-04-24T01:45:01;10.90;99.90
71754;DHT22;59593;51.716;7.016;2023-04-24T01:47:29;10.80;99.90
71754;DHT22;59593;51.716;7.016;2023-04-24T01:49:55;10.90;99.90
71754;DHT22;59593;51.716;7.016;2023-04-24T01:52:20;10.80;99.90
71754;DHT22;59593;51.716;7.016;2023-04-24T01:54:47;10.90;99.90
71754;DHT22;59593;51.716;7.016;2023-04-24T01:57:14;10.80;99.90
71754;DHT22;59593;51.716;7.016;2023-04-24T01:59:40;10.90;99.90
71754;DHT22;59593;51.716;7.016;2023-04-24T02:02:05;10.80;99.90
71754;DHT22;59593;51.716;7.016;2023-04-24T02:04:31;10.80;99.90
71754;DHT22;59593;51.716;7.016;2023-04-24T02:06:57;10.80;99.90
71754;DHT22;59593;51.716;7.016;2023-04-24T02:09:22;10.70;99.90
71754;DHT22;59593;51.716;7.016;2023-04-24T02:11:48;10.70;99.90
71754;DHT22;59593;51.716;7.016;2023-04-24T02:14:13;10.70;99.90
71754;DHT22;59593;51.716;7.016;2023-04-24T02:16:39;10.70;99.90
71754;DHT22;59593;51.716;7.016;2023-04-24T02:19:04;10.60;99.90
71754;DHT22;59593;51.716;7.016;2023-04-24T02:21:30;10.60;99.90
71754;DHT22;59593;51.716;7.016;2023-04-24T02:23:57;10.70;99.90
71754;DHT22;59593;51.716;7.016;2023-04-24T02:26:23;10.60;99.90
71754;DHT22;59593;51.716;7.016;2023-04-24T02:28:48;10.60;99.90
71754;DHT22;59593;51.716;7.016;2023-04-24T02:31:14;10.60;99.90
71754;DHT22;59593;51.716;7.016;2023-04-24T02:33:40;10.60;99.90
71754;DHT22;59593;51.716;7.016;2023-04-24T02:36:06;10.60;99.90
71754;DHT22;59593;51.716;7.016;2023-04-24T02:38:31;10.50;99.90
71754;DHT22;59593;51.716;7.016;2023-04-24T02:40:57;10.60;99.90
71754;DHT22;59593;51.716;7.016;2023-04-24T02:43:22;10.70;99.90
71754;DHT22;59593;51.716;7.016;2023-04-24T02:45:48;10.70;99.90
71754;DHT22;59593;51.716;7.016;2023-04-24T02:48:14;10.70;99.90
71754;DHT22;59593;51.716;7.016;2023-04-24T02:50:40;10.70;99.90
71754;DHT22;59593;51.716;7.016;2023-04-24T02:53:06;10.60;99.90
71754;DHT22;59593;51.716;7.016;2023-04-24T02:55:32;10.60;99.90
71754;DHT22;59593;51.716;7.016;2023-04-24T02:57:57;10.60;99.90
71754;DHT22;59593;51.716;7.016;2023-04-24T03:00:23;10.60;99.90
71754;DHT22;59593;51.716;7.016;2023-04-24T03:02:49;10.50;99.90
71754;DHT22;59593;51.716;7.016;2023-04-24T03:05:15;10.40;99.90
71754;DHT22;59593;51.716;7.016;2023-04-24T03:07:41;10.50;99.90
71754;DHT22;59593;51.716;7.016;2023-04-24T03:10:07;10.50;99.90
71754;DHT22;59593;51.716;7.016;2023-04-24T03:12:32;10.50;99.90
71754;DHT22;59593;51.716;7.016;2023-04-24T03:14:58;10.50;99.90
71754;DHT22;59593;51.716;7.016;2023-04-24T03:17:23;10.50;99.90
71754;DHT22;59593;51.716;7.016;2023-04-24T03:19:49;10.40;99.90
71754;DHT22;59593;51.716;7.016;2023-04-24T03:22:15;10.40;99.90
71754;DHT22;59593;51.716;7.016;2023-04-24T03:24:41;10.40;99.90
71754;DHT22;59593;51.716;7.016;2023-04-24T03:27:06;10.50;99.90
71754;DHT22;59593;51.716;7.016;2023-04-24T03:29:32;10.50;99.90
71754;DHT22;59593;51.716;7.016;2023-04-24T03:31:57;10.50;99.90
71754;DHT22;59593;51.716;7.016;2023-04-24T03:34:23;10.50;99.90
71754;DHT22;59593;51.716;7.016;2023-04-24T03:36:48;10.50;99.90
71754;DHT22;59593;51.716;7.016;2023-04-24T03:39:14;10.50;99.90
71754;DHT22;59593;51.716;7.016;2023-04-24T03:41:40;10.50;99.90
71754;DHT22;59593;51.716;7.016;2023-04-24T03:44:05;10.40;99.90
71754;DHT22;59593;51.716;7.016;2023-04-24T03:46:31;10.40;99.90
71754;DHT22;59593;51.716;7.016;2023-04-24T03:48:56;10.40;99.90
71754;DHT22;59593;51.716;7.016;2023-04-24T03:51:22;10.40;99.90
71754;DHT22;59593;51.716;7.016;2023-04-24T03:53:48;10.40;99.90
71754;DHT22;59593;51.716;7.016;2023-04-24T03:56:14;10.40;99.90
71754;DHT22;59593;51.716;7.016;2023-04-24T03:58:40;10.40;99.90
71754;DHT22;59593;51.716;7.016;2023-04-24T04:01:05;10.50;99.90
71754;DHT22;59593;51.716;7.016;2023-04-24T04:03:31;10.30;99.90
71754;DHT22;59593;51.716;7.016;2023-04-24T04:05:57;10.20;99.90
71754;DHT22;59593;51.716;7.016;2023-04-24T04:08:22;10.30;99.90
71754;DHT22;59593;51.716;7.016;2023-04-24T04:10:48;10.30;99.90
71754;DHT22;59593;51.716;7.016;2023-04-24T04:13:14;10.30;99.90
71754;DHT22;59593;51.716;7.016;2023-04-24T04:15:40;10.30;99.90
71754;DHT22;59593;51.716;7.016;2023-04-24T04:18:05;10.20;99.90
71754;DHT22;59593;51.716;7.016;2023-04-24T04:20:31;10.20;99.90
71754;DHT22;59593;51.716;7.016;2023-04-24T04:22:57;10.20;99.90
71754;DHT22;59593;51.716;7.016;2023-04-24T04:25:22;10.30;99.90
71754;DHT22;59593;51.716;7.016;2023-04-24T04:27:48;10.20;99.90
71754;DHT22;59593;51.716;7.016;2023-04-24T04:30:14;10.30;99.90
71754;DHT22;59593;51.716;7.016;2023-04-24T04:32:40;10.30;99.90
71754;DHT22;59593;51.716;7.016;2023-04-24T04:35:06;10.30;99.90
71754;DHT22;59593;51.716;7.016;2023-04-24T04:37:32;10.20;99.90
71754;DHT22;59593;51.716;7.016;2023-04-24T04:39:59;10.20;99.90
71754;DHT22;59593;51.716;7.016;2023-04-24T04:42:25;10.30;99.90
71754;DHT22;59593;51.716;7.016;2023-04-24T04:44:52;10.40;99.90
71754;DHT22;59593;51.716;7.016;2023-04-24T04:47:18;10.30;99.90
71754;DHT22;59593;51.716;7.016;2023-04-24T04:49:47;10.40;99.90
71754;DHT22;59593;51.716;7.016;2023-04-24T04:52:13;10.40;99.90
71754;DHT22;59593;51.716;7.016;2023-04-24T04:54:39;10.50;99.90
71754;DHT22;59593;51.716;7.016;2023-04-24T04:57:05;10.50;99.90
71754;DHT22;59593;51.716;7.016;2023-04-24T04:59:31;10.40;99.90
71754;DHT22;59593;51.716;7.016;2023-04-24T05:01:56;10.50;99.90
71754;DHT22;59593;51.716;7.016;2023-04-24T05:04:22;10.50;99.90
71754;DHT22;59593;51.716;7.016;2023-04-24T05:06:47;10.40;99.90
71754;DHT22;59593;51.716;7.016;2023-04-24T05:09:13;10.50;99.90
71754;DHT22;59593;51.716;7.016;2023-04-24T05:11:39;10.50;99.90
71754;DHT22;59593;51.716;7.016;2023-04-24T05:14:04;10.40;99.90
71754;DHT22;59593;51.716;7.016;2023-04-24T05:16:30;10.50;99.90
71754;DHT22;59593;51.716;7.016;2023-04-24T05:18:56;10.50;99.90
71754;DHT22;59593;51.716;7.016;2023-04-24T05:21:21;10.40;99.90
71754;DHT22;59593;51.716;7.016;2023-04-24T05:23:47;10.30;99.90
71754;DHT22;59593;51.716;7.016;2023-04-24T05:26:13;10.30;99.90
71754;DHT22;59593;51.716;7.016;2023-04-24T05:28:39;10.40;99.90
71754;DHT22;59593;51.716;7.016;2023-04-24T05:31:05;10.40;99.90
71754;DHT22;59593;51.716;7.016;2023-04-24T05:33:31;10.40;99.90
71754;DHT22;59593;51.716;7.016;2023-04-24T05:35:57;10.40;99.90
71754;DHT22;59593;51.716;7.016;2023-04-24T05:38:23;10.40;99.90
71754;DHT22;59593;51.716;7.016;2023-04-24T05:40:48;10.40;99.90
71754;DHT22;59593;51.716;7.016;2023-04-24T05:43:14;10.30;99.90
71754;DHT22;59593;51.716;7.016;2023-04-24T05:45:40;10.20;99.90
71754;DHT22;59593;51.716;7.016;2023-04-24T05:48:05;10.20;99.90
71754;DHT22;59593;51.716;7.016;2023-04-24T05:50:31;10.20;99.90
71754;DHT22;59593;51.716;7.016;2023-04-24T05:52:57;10.20;99.90
71754;DHT22;59593;51.716;7.016;2023-04-24T05:55:24;10.20;99.90
71754;DHT22;59593;51.716;7.016;2023-04-24T05:57:51;10.10;99.90
71754;DHT22;59593;51.716;7.016;2023-04-24T06:00:16;10.10;99.90
71754;DHT22;59593;51.716;7.016;2023-04-24T06:02:44;10.00;99.90
71754;DHT22;59593;51.716;7.016;2023-04-24T06:05:10;10.10;99.90
71754;DHT22;59593;51.716;7.016;2023-04-24T06:07:36;10.10;99.90
71754;DHT22;59593;51.716;7.016;2023-04-24T06:10:02;10.00;99.90
71754;DHT22;59593;51.716;7.016;2023-04-24T06:12:27;10.00;99.90
71754;DHT22;59593;51.716;7.016;2023-04-24T06:14:53;10.00;99.90
71754;DHT22;59593;51.716;7.016;2023-04-24T06:17:21;10.00;99.90
71754;DHT22;59593;51.716;7.016;2023-04-24T06:19:46;10.10;99.90
71754;DHT22;59593;51.716;7.016;2023-04-24T06:22:12;10.10;99.90
71754;DHT22;59593;51.716;7.016;2023-04-24T06:24:39;10.10;99.90
71754;DHT22;59593;51.716;7.016;2023-04-24T06:27:05;10.10;99.90
71754;DHT22;59593;51.716;7.016;2023-04-24T06:29:31;10.00;99.90
71754;DHT22;59593;51.716;7.016;2023-04-24T06:31:57;10.00;99.90
71754;DHT22;59593;51.716;7.016;2023-04-24T06:34:22;9.90;99.90
71754;DHT22;59593;51.716;7.016;2023-04-24T06:36:48;9.90;99.90
71754;DHT22;59593;51.716;7.016;2023-04-24T06:39:13;10.00;99.90
71754;DHT22;59593;51.716;7.016;2023-04-24T06:41:40;9.90;99.90
71754;DHT22;59593;51.716;7.016;2023-04-24T06:44:05;10.00;99.90
71754;DHT22;59593;51.716;7.016;2023-04-24T06:46:31;10.00;99.90
71754;DHT22;59593;51.716;7.016;2023-04-24T06:48:56;9.90;99.90
71754;DHT22;59593;51.716;7.016;2023-04-24T06:51:23;9.80;99.90
71754;DHT22;59593;51.716;7.016;2023-04-24T06:53:49;9.80;99.90
71754;DHT22;59593;51.716;7.016;2023-04-24T06:56:15;9.80;99.90
71754;DHT22;59593;51.716;7.016;2023-04-24T06:58:41;9.80;99.90
71754;DHT22;59593;51.716;7.016;2023-04-24T07:01:07;9.90;99.90
71754;DHT22;59593;51.716;7.016;2023-04-24T07:03:32;9.90;99.90
71754;DHT22;59593;51.716;7.016;2023-04-24T07:05:58;9.80;99.90
71754;DHT22;59593;51.716;7.016;2023-04-24T07:08:23;9.90;99.90
71754;DHT22;59593;51.716;7.016;2023-04-24T07:10:50;9.80;99.90
71754;DHT22;59593;51.716;7.016;2023-04-24T07:13:16;9.80;99.90
71754;DHT22;59593;51.716;7.016;2023-04-24T07:15:42;9.80;99.90
71754;DHT22;59593;51.716;7.016;2023-04-24T07:18:08;9.90;99.90
71754;DHT22;59593;51.716;7.016;2023-04-24T07:20:34;9.80;99.90
71754;DHT22;59593;51.716;7.016;2023-04-24T07:23:00;9.80;99.90
71754;DHT22;59593;51.716;7.016;2023-04-24T07:25:26;9.80;99.90
71754;DHT22;59593;51.716;7.016;2023-04-24T07:27:52;9.90;99.90
71754;DHT22;59593;51.716;7.016;2023-04-24T07:30:18;9.90;99.90
71754;DHT22;59593;51.716;7.016;2023-04-24T07:32:43;9.90;99.90
71754;DHT22;59593;51.716;7.016;2023-04-24T07:35:09;9.90;99.90
71754;DHT22;59593;51.716;7.016;2023-04-24T07:37:35;10.10;99.90
71754;DHT22;59593;51.716;7.016;2023-04-24T07:40:01;10.10;99.90
71754;DHT22;59593;51.716;7.016;2023-04-24T07:42:27;10.10;99.90
71754;DHT22;59593;51.716;7.016;2023-04-24T07:44:53;10.10;99.90
71754;DHT22;59593;51.716;7.016;2023-04-24T07:47:19;10.00;99.90
71754;DHT22;59593;51.716;7.016;2023-04-24T07:49:44;9.90;99.90
71754;DHT22;59593;51.716;7.016;2023-04-24T07:52:10;9.90;99.90
71754;DHT22;59593;51.716;7.016;2023-04-24T07:54:36;9.80;99.90
71754;DHT22;59593;51.716;7.016;2023-04-24T07:57:02;9.80;99.90
71754;DHT22;59593;51.716;7.016;2023-04-24T07:59:28;9.80;99.90
71754;DHT22;59593;51.716;7.016;2023-04-24T08:01:54;9.80;99.90
71754;DHT22;59593;51.716;7.016;2023-04-24T08:04:19;9.80;99.90
71754;DHT22;59593;51.716;7.016;2023-04-24T08:06:47;9.80;99.90
71754;DHT22;59593;51.716;7.016;2023-04-24T08:09:12;9.70;99.90
71754;DHT22;59593;51.716;7.016;2023-04-24T08:11:38;9.60;99.90
71754;DHT22;59593;51.716;7.016;2023-04-24T08:14:04;9.60;99.90
71754;DHT22;59593;51.716;7.016;2023-04-24T08:16:29;9.50;99.90
71754;DHT22;59593;51.716;7.016;2023-04-24T08:18:55;9.50;99.90
71754;DHT22;59593;51.716;7.016;2023-04-24T08:21:21;9.50;99.90
71754;DHT22;59593;51.716;7.016;2023-04-24T08:23:46;9.40;99.90
71754;DHT22;59593;51.716;7.016;2023-04-24T08:26:13;9.40;99.90
71754;DHT22;59593;51.716;7.016;2023-04-24T08:28:39;9.50;99.90
71754;DHT22;59593;51.716;7.016;2023-04-24T08:31:05;9.50;99.90
71754;DHT22;59593;51.716;7.016;2023-04-24T08:33:30;9.60;99.90
71754;DHT22;59593;51.716;7.016;2023-04-24T08:36:03;9.60;99.90
71754;DHT22;59593;51.716;7.016;2023-04-24T08:38:29;9.60;99.90
71754;DHT22;59593;51.716;7.016;2023-04-24T08:40:57;9.60;99.90
71754;DHT22;59593;51.716;7.016;2023-04-24T08:43:23;9.60;99.90
71754;DHT22;59593;51.716;7.016;2023-04-24T08:45:50;9.60;99.90
71754;DHT22;59593;51.716;7.016;2023-04-24T08:48:16;9.60;99.90
71754;DHT22;59593;51.716;7.016;2023-04-24T08:50:42;9.50;99.90
71754;DHT22;59593;51.716;7.016;2023-04-24T08:53:10;9.60;99.90
71754;DHT22;59593;51.716;7.016;2023-04-24T08:55:37;9.70;99.90
71754;DHT22;59593;51.716;7.016;2023-04-24T08:58:04;9.70;99.90
71754;DHT22;59593;51.716;7.016;2023-04-24T09:00:29;9.80;99.90
71754;DHT22;59593;51.716;7.016;2023-04-24T09:02:55;9.70;99.90
71754;DHT22;59593;51.716;7.016;2023-04-24T09:05:22;9.80;99.90
71754;DHT22;59593;51.716;7.016;2023-04-24T09:07:56;9.80;99.90
71754;DHT22;59593;51.716;7.016;2023-04-24T09:10:24;9.90;99.90
71754;DHT22;59593;51.716;7.016;2023-04-24T09:12:54;9.90;99.90
71754;DHT22;59593;51.716;7.016;2023-04-24T09:15:20;9.90;99.90
71754;DHT22;59593;51.716;7.016;2023-04-24T09:17:46;9.90;99.90
71754;DHT22;59593;51.716;7.016;2023-04-24T09:20:12;10.00;99.90
71754;DHT22;59593;51.716;7.016;2023-04-24T09:22:38;10.00;99.90
71754;DHT22;59593;51.716;7.016;2023-04-24T09:25:05;10.00;99.90
71754;DHT22;59593;51.716;7.016;2023-04-24T09:27:33;10.00;99.90
71754;DHT22;59593;51.716;7.016;2023-04-24T09:29:59;9.90;99.90
71754;DHT22;59593;51.716;7.016;2023-04-24T09:32:25;9.90;99.90
71754;DHT22;59593;51.716;7.016;2023-04-24T09:35:13;9.80;99.90
71754;DHT22;59593;51.716;7.016;2023-04-24T09:37:45;9.80;99.90
71754;DHT22;59593;51.716;7.016;2023-04-24T09:40:19;9.80;99.90
71754;DHT22;59593;51.716;7.016;2023-04-24T09:42:54;9.80;99.90
71754;DHT22;59593;51.716;7.016;2023-04-24T09:45:21;9.70;99.90
71754;DHT22;59593;51.716;7.016;2023-04-24T09:47:51;9.40;99.90
71754;DHT22;59593;51.716;7.016;2023-04-24T09:50:17;9.30;99.90
71754;DHT22;59593;51.716;7.016;2023-04-24T09:52:43;9.30;99.90
71754;DHT22;59593;51.716;7.016;2023-04-24T09:55:20;9.20;99.90
71754;DHT22;59593;51.716;7.016;2023-04-24T10:00:24;9.20;99.90
71754;DHT22;59593;51.716;7.016;2023-04-24T10:05:30;9.20;99.90
71754;DHT22;59593;51.716;7.016;2023-04-24T10:08:04;9.20;99.90
71754;DHT22;59593;51.716;7.016;2023-04-24T10:10:31;9.10;99.90
71754;DHT22;59593;51.716;7.016;2023-04-24T10:12:57;9.10;99.90
71754;DHT22;59593;51.716;7.016;2023-04-24T10:15:24;9.20;99.90
71754;DHT22;59593;51.716;7.016;2023-04-24T10:17:52;9.20;99.90
71754;DHT22;59593;51.716;7.016;2023-04-24T10:20:27;9.20;99.90
71754;DHT22;59593;51.716;7.016;2023-04-24T10:22:55;9.20;99.90
71754;DHT22;59593;51.716;7.016;2023-04-24T10:25:22;9.20;99.90
71754;DHT22;59593;51.716;7.016;2023-04-24T10:27:51;9.30;99.90
71754;DHT22;59593;51.716;7.016;2023-04-24T10:30:20;9.40;99.90
71754;DHT22;59593;51.716;7.016;2023-04-24T10:32:46;9.40;99.90
71754;DHT22;59593;51.716;7.016;2023-04-24T10:35:13;9.40;99.90
71754;DHT22;59593;51.716;7.016;2023-04-24T10:38:01;9.30;99.90
71754;DHT22;59593;51.716;7.016;2023-04-24T10:40:33;9.30;99.90
71754;DHT22;59593;51.716;7.016;2023-04-24T10:43:01;9.30;99.90
71754;DHT22;59593;51.716;7.016;2023-04-24T10:45:27;9.30;99.90
71754;DHT22;59593;51.716;7.016;2023-04-24T10:48:01;9.30;99.90
71754;DHT22;59593;51.716;7.016;2023-04-24T10:50:28;9.40;99.90
71754;DHT22;59593;51.716;7.016;2023-04-24T10:53:06;9.50;99.90
71754;DHT22;59593;51.716;7.016;2023-04-24T10:58:09;9.40;99.90
71754;DHT22;59593;51.716;7.016;2023-04-24T11:00:37;9.40;99.90
71754;DHT22;59593;51.716;7.016;2023-04-24T11:03:22;9.40;99.90
71754;DHT22;59593;51.716;7.016;2023-04-24T11:08:32;9.30;99.90
71754;DHT22;59593;51.716;7.016;2023-04-24T11:18:59;9.50;99.90
71754;DHT22;59593;51.716;7.016;2023-04-24T11:21:28;9.50;99.90
71754;DHT22;59593;51.716;7.016;2023-04-24T11:23:57;9.50;99.90
71754;DHT22;59593;51.716;7.016;2023-04-24T11:26:22;9.50;99.90
71754;DHT22;59593;51.716;7.016;2023-04-24T11:29:07;9.50;99.90
71754;DHT22;59593;51.716;7.016;2023-04-24T11:31:40;9.60;99.90
71754;DHT22;59593;51.716;7.016;2023-04-24T11:34:12;9.60;99.90
71754;DHT22;59593;51.716;7.016;2023-04-24T11:36:38;9.70;99.90
71754;DHT22;59593;51.716;7.016;2023-04-24T11:39:04;9.80;99.90
71754;DHT22;59593;51.716;7.016;2023-04-24T11:41:30;9.70;99.90
71754;DHT22;59593;51.716;7.016;2023-04-24T11:43:57;9.90;99.90
71754;DHT22;59593;51.716;7.016;2023-04-24T11:46:23;10.10;99.90
71754;DHT22;59593;51.716;7.016;2023-04-24T11:48:51;10.20;99.90
71754;DHT22;59593;51.716;7.016;2023-04-24T11:51:17;10.30;99.90
71754;DHT22;59593;51.716;7.016;2023-04-24T11:53:42;10.30;99.90
71754;DHT22;59593;51.716;7.016;2023-04-24T11:56:11;10.50;99.90
71754;DHT22;59593;51.716;7.016;2023-04-24T11:58:38;10.40;99.90
71754;DHT22;59593;51.716;7.016;2023-04-24T12:01:04;10.40;99.90
71754;DHT22;59593;51.716;7.016;2023-04-24T12:03:30;10.40;99.90
71754;DHT22;59593;51.716;7.016;2023-04-24T12:06:09;10.30;99.90
71754;DHT22;59593;51.716;7.016;2023-04-24T12:08:36;10.20;99.90
71754;DHT22;59593;51.716;7.016;2023-04-24T12:11:03;9.90;99.90
71754;DHT22;59593;51.716;7.016;2023-04-24T12:13:29;9.90;99.90
71754;DHT22;59593;51.716;7.016;2023-04-24T12:15:57;9.90;99.90
71754;DHT22;59593;51.716;7.016;2023-04-24T12:18:23;9.90;99.90
71754;DHT22;59593;51.716;7.016;2023-04-24T12:20:49;9.90;99.90
71754;DHT22;59593;51.716;7.016;2023-04-24T12:23:15;9.90;99.90
71754;DHT22;59593;51.716;7.016;2023-04-24T12:25:40;9.90;99.90
71754;DHT22;59593;51.716;7.016;2023-04-24T12:30:42;10.00;99.90
71754;DHT22;59593;51.716;7.016;2023-04-24T12:33:10;10.10;99.90
71754;DHT22;59593;51.716;7.016;2023-04-24T12:35:35;10.10;99.90
71754;DHT22;59593;51.716;7.016;2023-04-24T12:38:12;10.20;99.90
71754;DHT22;59593;51.716;7.016;2023-04-24T12:40:39;10.00;99.90
71754;DHT22;59593;51.716;7.016;2023-04-24T12:43:18;10.10;99.90
71754;DHT22;59593;51.716;7.016;2023-04-24T12:45:43;10.10;99.90
71754;DHT22;59593;51.716;7.016;2023-04-24T12:48:10;10.20;99.90
71754;DHT22;59593;51.716;7.016;2023-04-24T12:50:36;10.20;99.90
71754;DHT22;59593;51.716;7.016;2023-04-24T12:53:01;10.10;99.90
71754;DHT22;59593;51.716;7.016;2023-04-24T12:55:27;10.20;99.90
71754;DHT22;59593;51.716;7.016;2023-04-24T12:57:53;10.20;99.90
71754;DHT22;59593;51.716;7.016;2023-04-24T13:00:20;10.40;99.90
71754;DHT22;59593;51.716;7.016;2023-04-24T13:02:46;10.40;99.90
71754;DHT22;59593;51.716;7.016;2023-04-24T13:05:12;10.30;99.90
71754;DHT22;59593;51.716;7.016;2023-04-24T13:07:39;10.40;99.90
71754;DHT22;59593;51.716;7.016;2023-04-24T13:10:05;10.40;99.90
71754;DHT22;59593;51.716;7.016;2023-04-24T13:12:32;10.40;99.90
71754;DHT22;59593;51.716;7.016;2023-04-24T13:14:58;10.50;99.90
71754;DHT22;59593;51.716;7.016;2023-04-24T13:17:24;10.60;99.90
71754;DHT22;59593;51.716;7.016;2023-04-24T13:19:50;10.40;99.90
71754;DHT22;59593;51.716;7.016;2023-04-24T13:22:17;10.40;99.90
71754;DHT22;59593;51.716;7.016;2023-04-24T13:24:44;10.40;99.90
71754;DHT22;59593;51.716;7.016;2023-04-24T13:27:10;10.30;99.90
71754;DHT22;59593;51.716;7.016;2023-04-24T13:29:36;10.30;99.90
71754;DHT22;59593;51.716;7.016;2023-04-24T13:32:02;10.50;99.90
71754;DHT22;59593;51.716;7.016;2023-04-24T13:34:28;10.60;99.90
71754;DHT22;59593;51.716;7.016;2023-04-24T13:36:55;10.80;99.90
71754;DHT22;59593;51.716;7.016;2023-04-24T13:39:22;11.00;99.90
71754;DHT22;59593;51.716;7.016;2023-04-24T13:41:48;11.00;99.90
71754;DHT22;59593;51.716;7.016;2023-04-24T13:44:14;11.10;99.90
71754;DHT22;59593;51.716;7.016;2023-04-24T13:46:41;11.20;99.90
71754;DHT22;59593;51.716;7.016;2023-04-24T13:49:06;11.00;99.90
71754;DHT22;59593;51.716;7.016;2023-04-24T13:51:32;11.00;99.90
71754;DHT22;59593;51.716;7.016;2023-04-24T13:53:58;10.90;99.90
71754;DHT22;59593;51.716;7.016;2023-04-24T13:56:23;10.50;99.90
71754;DHT22;59593;51.716;7.016;2023-04-24T13:58:49;10.30;99.90
71754;DHT22;59593;51.716;7.016;2023-04-24T14:01:15;10.10;99.90
71754;DHT22;59593;51.716;7.016;2023-04-24T14:03:42;10.10;99.90
71754;DHT22;59593;51.716;7.016;2023-04-24T14:06:08;10.10;99.90
71754;DHT22;59593;51.716;7.016;2023-04-24T14:08:34;10.10;99.90
71754;DHT22;59593;51.716;7.016;2023-04-24T14:11:00;10.20;99.90
71754;DHT22;59593;51.716;7.016;2023-04-24T14:13:25;10.30;99.90
71754;DHT22;59593;51.716;7.016;2023-04-24T14:15:51;10.40;99.90
71754;DHT22;59593;51.716;7.016;2023-04-24T14:18:18;10.50;99.90
71754;DHT22;59593;51.716;7.016;2023-04-24T14:20:44;10.70;99.90
71754;DHT22;59593;51.716;7.016;2023-04-24T14:23:09;10.70;99.90
71754;DHT22;59593;51.716;7.016;2023-04-24T14:25:35;10.60;99.90
71754;DHT22;59593;51.716;7.016;2023-04-24T14:28:01;10.70;99.90
71754;DHT22;59593;51.716;7.016;2023-04-24T14:30:26;10.70;99.90
71754;DHT22;59593;51.716;7.016;2023-04-24T14:32:52;10.80;99.90
71754;DHT22;59593;51.716;7.016;2023-04-24T14:35:17;10.80;99.90
71754;DHT22;59593;51.716;7.016;2023-04-24T14:37:43;10.70;99.90
71754;DHT22;59593;51.716;7.016;2023-04-24T14:40:09;10.60;99.90
71754;DHT22;59593;51.716;7.016;2023-04-24T14:42:35;10.50;99.90
71754;DHT22;59593;51.716;7.016;2023-04-24T14:45:01;10.40;99.90
71754;DHT22;59593;51.716;7.016;2023-04-24T14:47:27;10.40;99.90
71754;DHT22;59593;51.716;7.016;2023-04-24T14:49:52;10.40;99.90
71754;DHT22;59593;51.716;7.016;2023-04-24T14:52:18;10.40;99.90
71754;DHT22;59593;51.716;7.016;2023-04-24T14:54:44;10.40;99.90
71754;DHT22;59593;51.716;7.016;2023-04-24T14:57:09;10.40;99.90
71754;DHT22;59593;51.716;7.016;2023-04-24T14:59:35;10.60;99.90
71754;DHT22;59593;51.716;7.016;2023-04-24T15:02:01;10.60;99.90
71754;DHT22;59593;51.716;7.016;2023-04-24T15:04:28;10.40;99.90
71754;DHT22;59593;51.716;7.016;2023-04-24T15:06:54;10.20;99.90
71754;DHT22;59593;51.716;7.016;2023-04-24T15:09:21;10.20;99.90
71754;DHT22;59593;51.716;7.016;2023-04-24T15:11:48;10.20;99.90
71754;DHT22;59593;51.716;7.016;2023-04-24T15:14:14;10.30;99.90
71754;DHT22;59593;51.716;7.016;2023-04-24T15:16:40;10.20;99.90
71754;DHT22;59593;51.716;7.016;2023-04-24T15:19:06;10.10;99.90
71754;DHT22;59593;51.716;7.016;2023-04-24T15:21:31;10.00;99.90
71754;DHT22;59593;51.716;7.016;2023-04-24T15:23:57;10.00;99.90
71754;DHT22;59593;51.716;7.016;2023-04-24T15:26:24;9.90;99.90
71754;DHT22;59593;51.716;7.016;2023-04-24T15:28:49;9.90;99.90
71754;DHT22;59593;51.716;7.016;2023-04-24T15:31:17;9.70;99.90
71754;DHT22;59593;51.716;7.016;2023-04-24T15:33:42;9.80;99.90
71754;DHT22;59593;51.716;7.016;2023-04-24T15:36:08;9.80;99.90
71754;DHT22;59593;51.716;7.016;2023-04-24T15:38:34;9.60;99.90
71754;DHT22;59593;51.716;7.016;2023-04-24T15:40:59;9.60;99.90
71754;DHT22;59593;51.716;7.016;2023-04-24T15:43:25;9.60;99.90
71754;DHT22;59593;51.716;7.016;2023-04-24T15:45:51;9.60;99.90
71754;DHT22;59593;51.716;7.016;2023-04-24T15:48:16;9.60;99.90
71754;DHT22;59593;51.716;7.016;2023-04-24T15:50:42;9.50;99.90